createdAt,value
2023-03-21T00:02:25.908Z,100.00
2023-03-21T00:07:30.475Z,100.00
2023-03-21T00:12:37.846Z,100.00
2023-03-21T00:17:41.160Z,100.00
2023-03-21T00:22:45.871Z,100.00
2023-03-21T00:28:05.081Z,99.95
2023-03-21T00:33:22.050Z,100.00
2023-03-21T00:38:27.369Z,99.28
2023-03-21T00:43:31.252Z,98.70
2023-03-21T00:48:34.389Z,97.38
2023-03-21T00:53:38.956Z,97.66
2023-03-21T00:58:42.718Z,96.93
2023-03-21T01:03:51.250Z,98.47
2023-03-21T01:08:56.217Z,99.11
2023-03-21T01:14:14.701Z,100.00
2023-03-21T01:19:37.667Z,100.00
2023-03-21T01:24:53.873Z,100.00
2023-03-21T01:29:58.677Z,100.00
2023-03-21T01:35:05.549Z,100.00
2023-03-21T01:40:16.744Z,100.00
2023-03-21T01:45:57.028Z,100.00
2023-03-21T01:51:01.842Z,100.00
2023-03-21T01:56:13.799Z,100.00
2023-03-21T02:01:19.581Z,100.00
2023-03-21T02:06:31.916Z,100.00
2023-03-21T02:11:38.632Z,100.00
2023-03-21T02:16:50.012Z,100.00
2023-03-21T02:22:21.961Z,100.00
2023-03-21T02:27:29.635Z,100.00
2023-03-21T02:32:49.122Z,100.00
2023-03-21T02:38:00.902Z,100.00
2023-03-21T02:43:20.861Z,100.00
2023-03-21T02:48:44.395Z,100.00
2023-03-21T02:54:24.853Z,100.00
2023-03-21T02:59:26.258Z,100.00
2023-03-21T03:04:31.229Z,100.00
2023-03-21T03:09:46.534Z,100.00
2023-03-21T03:15:03.357Z,100.00
2023-03-21T03:20:20.410Z,100.00
2023-03-21T03:25:41.530Z,100.00
2023-03-21T03:31:01.131Z,100.00
2023-03-21T03:36:28.375Z,100.00
2023-03-21T03:42:04.175Z,100.00
2023-03-21T03:47:06.990Z,100.00
2023-03-21T03:52:15.112Z,100.00
2023-03-21T03:57:20.366Z,100.00
2023-03-21T04:02:23.635Z,100.00
2023-03-21T04:07:27.935Z,100.00
2023-03-21T04:18:05.019Z,100.00
2023-03-21T04:23:09.086Z,100.00
2023-03-21T04:28:12.399Z,100.00
2023-03-21T04:33:17.175Z,100.00
2023-03-21T04:38:20.406Z,100.00
2023-03-21T04:43:23.988Z,100.00
2023-03-21T04:48:28.850Z,100.00
2023-03-21T04:53:31.932Z,100.00
2023-03-21T04:58:35.234Z,100.00
2023-03-21T05:03:40.593Z,100.00
2023-03-21T05:08:43.810Z,100.00
2023-03-21T05:13:47.127Z,100.00
2023-03-21T05:18:52.740Z,100.00
2023-03-21T05:23:56.693Z,100.00
2023-03-21T05:28:59.880Z,100.00
2023-03-21T05:34:04.936Z,100.00
2023-03-21T05:39:08.223Z,100.00
2023-03-21T05:44:11.672Z,100.00
2023-03-21T05:49:16.544Z,100.00
2023-03-21T05:54:24.344Z,100.00
2023-03-21T05:59:27.792Z,100.00
2023-03-21T06:04:34.482Z,100.00
2023-03-21T06:09:38.073Z,100.00
2023-03-21T06:14:41.333Z,100.00
2023-03-21T06:19:45.898Z,100.00
2023-03-21T06:24:50.167Z,100.00
2023-03-21T06:29:53.606Z,100.00
2023-03-21T06:34:58.413Z,100.00
2023-03-21T06:40:02.149Z,100.00
2023-03-21T06:45:09.440Z,100.00
2023-03-21T06:50:14.438Z,99.08
2023-03-21T06:55:26.218Z,99.03
2023-03-21T07:00:29.800Z,98.19
2023-03-21T07:05:36.881Z,96.45
2023-03-21T07:10:45.538Z,95.93
2023-03-21T07:15:48.831Z,95.89
2023-03-21T07:20:53.715Z,94.93
2023-03-21T07:25:57.567Z,94.98
2023-03-21T07:31:02.659Z,94.10
2023-03-21T07:36:12.629Z,91.49
2023-03-21T07:46:19.788Z,89.72
2023-03-21T07:51:24.716Z,88.44
2023-03-21T07:56:28.093Z,87.07
2023-03-21T08:01:32.195Z,86.20
2023-03-21T08:06:37.331Z,84.57
2023-03-21T08:11:41.954Z,81.48
2023-03-21T08:16:45.339Z,81.13
2023-03-21T08:21:51.125Z,80.20
2023-03-21T08:26:54.659Z,79.33
2023-03-21T08:31:58.263Z,79.01
2023-03-21T08:37:04.351Z,77.49
2023-03-21T08:42:07.522Z,77.86
2023-03-21T08:47:11.015Z,76.50
2023-03-21T08:52:15.720Z,75.71
2023-03-21T08:57:18.961Z,74.61
2023-03-21T09:02:22.529Z,74.47
2023-03-21T09:07:28.005Z,73.85
2023-03-21T09:12:31.508Z,73.39
2023-03-21T09:17:34.689Z,73.51
2023-03-21T09:22:42.324Z,72.94
2023-03-21T09:27:46.257Z,73.03
2023-03-21T09:32:50.483Z,71.92
2023-03-21T09:37:57.587Z,71.02
2023-03-21T09:43:12.786Z,71.05
2023-03-21T09:48:29.479Z,70.25
2023-03-21T09:53:37.906Z,70.16
2023-03-21T09:58:46.298Z,70.13
2023-03-21T10:03:50.736Z,69.06
2023-03-21T10:08:58.989Z,66.98
2023-03-21T10:14:06.365Z,66.96
2023-03-21T10:19:13.968Z,66.64
2023-03-21T10:24:21.856Z,65.12
2023-03-21T10:29:30.833Z,65.85
2023-03-21T10:34:40.930Z,66.71
2023-03-21T10:39:48.792Z,66.66
2023-03-21T10:44:54.573Z,64.54
2023-03-21T10:50:08.432Z,63.63
2023-03-21T10:55:22.830Z,62.97
2023-03-21T11:00:30.313Z,62.94
2023-03-21T11:05:41.015Z,63.43
2023-03-21T11:10:55.494Z,62.66
2023-03-21T11:16:07.412Z,61.08
2023-03-21T11:21:13.132Z,62.18
2023-03-21T11:26:24.467Z,61.47
2023-03-21T11:31:40.289Z,60.75
2023-03-21T11:36:43.701Z,60.76
2023-03-21T11:41:53.661Z,61.01
2023-03-21T11:46:56.991Z,59.69
2023-03-21T11:52:13.654Z,59.25
2023-03-21T11:57:33.317Z,58.61
2023-03-21T12:03:03.160Z,59.13
2023-03-21T12:08:23.606Z,59.12
2023-03-21T12:13:48.539Z,58.12
2023-03-21T12:19:10.487Z,57.87
2023-03-21T12:24:20.672Z,58.84
2023-03-21T12:29:49.024Z,58.38
2023-03-21T12:35:28.466Z,57.00
2023-03-21T12:40:46.088Z,58.14
2023-03-21T12:45:56.254Z,57.28
2023-03-21T12:51:03.949Z,58.36
2023-03-21T12:56:11.564Z,57.62
2023-03-21T13:01:19.729Z,58.07
2023-03-21T13:06:26.668Z,57.54
2023-03-21T13:11:32.217Z,57.38
2023-03-21T13:16:40.417Z,57.26
2023-03-21T13:21:51.793Z,56.90
2023-03-21T13:27:04.332Z,57.06
2023-03-21T13:32:17.402Z,57.14
2023-03-21T13:37:21.756Z,57.63
2023-03-21T13:42:33.485Z,56.99
2023-03-21T13:47:42.645Z,56.95
2023-03-21T13:53:25.563Z,56.28
2023-03-21T13:58:38.595Z,56.70
2023-03-21T14:03:45.536Z,57.52
2023-03-21T14:08:51.167Z,56.86
2023-03-21T14:13:56.450Z,57.19
2023-03-21T14:19:05.930Z,57.31
2023-03-21T14:24:14.752Z,57.79
2023-03-21T14:29:26.600Z,57.97
2023-03-21T14:34:34.697Z,58.87
2023-03-21T14:39:37.812Z,58.88
2023-03-21T14:44:58.663Z,59.71
2023-03-21T14:50:04.302Z,59.08
2023-03-21T14:55:16.961Z,59.78
2023-03-21T15:00:26.717Z,59.48
2023-03-21T15:05:33.861Z,59.84
2023-03-21T15:10:38.544Z,59.80
2023-03-21T15:15:43.204Z,59.63
2023-03-21T15:20:51.406Z,60.12
2023-03-21T15:25:54.988Z,59.69
2023-03-21T15:30:58.713Z,59.66
2023-03-21T15:36:10.741Z,59.95
2023-03-21T15:41:32.886Z,59.65
2023-03-21T15:46:43.213Z,60.17
2023-03-21T15:51:52.704Z,59.66
2023-03-21T15:57:01.326Z,60.25
2023-03-21T16:02:06.008Z,59.99
2023-03-21T16:07:17.765Z,60.07
2023-03-21T16:12:21.794Z,60.13
2023-03-21T16:17:30.236Z,61.03
2023-03-21T16:22:35.947Z,61.49
2023-03-21T16:27:39.185Z,61.91
2023-03-21T16:32:42.753Z,62.30
2023-03-21T16:37:48.373Z,62.78
2023-03-21T16:42:51.750Z,63.08
2023-03-21T16:47:55.241Z,64.29
2023-03-21T16:53:00.400Z,64.16
2023-03-21T16:58:03.623Z,64.22
2023-03-21T17:03:14.940Z,64.56
2023-03-21T17:08:22.020Z,64.80
2023-03-21T17:13:25.553Z,65.41
2023-03-21T17:18:29.810Z,65.43
2023-03-21T17:23:34.416Z,65.34
2023-03-21T17:28:37.982Z,66.06
2023-03-21T17:33:41.411Z,65.98
2023-03-21T17:38:46.930Z,66.00
2023-03-21T17:43:55.923Z,66.41
2023-03-21T17:48:59.301Z,66.74
2023-03-21T17:54:05.086Z,67.84
2023-03-21T17:59:13.139Z,67.92
2023-03-21T18:04:16.663Z,68.92
2023-03-21T18:09:21.850Z,70.13
2023-03-21T18:14:28.852Z,70.68
2023-03-21T18:19:34.652Z,71.30
2023-03-21T18:24:39.266Z,73.38
2023-03-21T18:30:22.222Z,75.19
2023-03-21T18:35:06.498Z,77.11
2023-03-21T18:40:13.159Z,79.47
2023-03-21T18:45:18.211Z,80.35
2023-03-21T18:50:21.880Z,82.62
2023-03-21T18:55:44.359Z,84.22
2023-03-21T19:00:50.671Z,86.09
2023-03-21T19:05:53.977Z,86.81
2023-03-21T19:11:05.545Z,88.99
2023-03-21T19:16:11.256Z,90.09
2023-03-21T19:21:14.831Z,90.51
2023-03-21T19:26:19.408Z,91.73
2023-03-21T19:31:24.444Z,92.51
2023-03-21T19:36:27.961Z,93.18
2023-03-21T19:41:34.220Z,94.58
2023-03-21T19:46:37.913Z,95.61
2023-03-21T19:51:41.113Z,96.49
2023-03-21T19:56:47.661Z,98.47
2023-03-21T20:02:34.003Z,98.67
2023-03-21T20:08:01.288Z,99.66
2023-03-21T20:13:22.233Z,100.00
2023-03-21T20:18:25.568Z,100.00
2023-03-21T20:23:28.827Z,100.00
2023-03-21T20:28:33.501Z,100.00
2023-03-21T20:33:37.366Z,100.00
2023-03-21T20:38:40.914Z,100.00
2023-03-21T20:49:08.915Z,100.00
2023-03-21T20:54:12.198Z,100.00
2023-03-21T20:59:25.591Z,100.00
2023-03-21T21:04:48.228Z,100.00
2023-03-21T21:09:54.571Z,100.00
2023-03-21T21:14:59.330Z,100.00
2023-03-21T21:20:08.957Z,100.00
2023-03-21T21:25:13.771Z,100.00
2023-03-21T21:30:18.833Z,100.00
2023-03-21T21:35:22.506Z,100.00
2023-03-21T21:40:26.141Z,100.00
2023-03-21T21:45:30.802Z,100.00
2023-03-21T21:50:34.354Z,100.00
2023-03-21T21:55:37.995Z,100.00
2023-03-21T22:00:42.721Z,100.00
2023-03-21T22:05:46.153Z,100.00
2023-03-21T22:10:49.336Z,100.00
2023-03-21T22:15:54.086Z,100.00
2023-03-21T22:21:00.731Z,100.00
2023-03-21T22:26:03.951Z,100.00
2023-03-21T22:31:13.231Z,100.00
2023-03-21T22:36:20.259Z,100.00
2023-03-21T22:41:23.356Z,100.00
2023-03-21T22:46:27.896Z,100.00
2023-03-21T22:51:31.111Z,100.00
2023-03-21T22:56:34.204Z,100.00
2023-03-21T23:01:39.973Z,100.00
2023-03-21T23:06:43.943Z,100.00
2023-03-21T23:11:49.794Z,100.00
2023-03-21T23:16:55.103Z,100.00
2023-03-21T23:21:59.356Z,100.00
2023-03-21T23:27:02.667Z,100.00
2023-03-21T23:32:07.427Z,100.00
2023-03-21T23:37:10.673Z,100.00
2023-03-21T23:42:13.800Z,100.00
2023-03-21T23:47:18.314Z,100.00
2023-03-21T23:52:21.564Z,100.00
2023-03-21T23:57:25.157Z,100.00
